sensor_id;sensor_type;location;lat;lon;timestamp;pressure;altitude;pressure_sealevel;temperature;humidity
6393;BME280;3229;42.674;23.282;2023-05-21T00:00:19;94501.38;;;18.08;61.23
6393;BME280;3229;42.674;23.282;2023-05-21T00:02:46;94515.31;;;18.07;61.47
6393;BME280;3229;42.674;23.282;2023-05-21T00:05:13;94493.16;;;17.97;61.54
6393;BME280;3229;42.674;23.282;2023-05-21T00:07:43;94506.53;;;18.01;61.58
6393;BME280;3229;42.674;23.282;2023-05-21T00:10:11;94504.31;;;17.98;61.75
6393;BME280;3229;42.674;23.282;2023-05-21T00:12:38;94500.13;;;17.97;61.83
6393;BME280;3229;42.674;23.282;2023-05-21T00:15:06;94493.88;;;17.91;61.75
6393;BME280;3229;42.674;23.282;2023-05-21T00:17:33;94498.28;;;17.91;61.61
6393;BME280;3229;42.674;23.282;2023-05-21T00:20:01;94417.44;;;17.39;61.88
6393;BME280;3229;42.674;23.282;2023-05-21T00:22:30;94500.41;;;17.87;61.88
6393;BME280;3229;42.674;23.282;2023-05-21T00:24:59;94491.63;;;17.82;62.00
6393;BME280;3229;42.674;23.282;2023-05-21T00:27:25;94489.03;;;17.82;62.13
6393;BME280;3229;42.674;23.282;2023-05-21T00:29:52;94492.19;;;17.77;62.25
6393;BME280;3229;42.674;23.282;2023-05-21T00:32:19;94490.59;;;17.76;62.38
6393;BME280;3229;42.674;23.282;2023-05-21T00:34:46;94489.34;;;17.72;62.34
6393;BME280;3229;42.674;23.282;2023-05-21T00:37:12;94490.50;;;17.69;62.54
6393;BME280;3229;42.674;23.282;2023-05-21T00:39:40;94492.66;;;17.66;62.55
6393;BME280;3229;42.674;23.282;2023-05-21T00:42:08;94486.09;;;17.63;62.52
6393;BME280;3229;42.674;23.282;2023-05-21T00:44:36;94480.69;;;17.58;62.73
6393;BME280;3229;42.674;23.282;2023-05-21T00:47:04;94477.47;;;17.56;62.65
6393;BME280;3229;42.674;23.282;2023-05-21T00:49:31;94479.59;;;17.52;62.86
6393;BME280;3229;42.674;23.282;2023-05-21T00:51:58;94476.44;;;17.50;62.68
6393;BME280;3229;42.674;23.282;2023-05-21T00:54:26;94474.41;;;17.46;62.81
6393;BME280;3229;42.674;23.282;2023-05-21T00:56:53;94469.16;;;17.39;62.98
6393;BME280;3229;42.674;23.282;2023-05-21T00:59:22;94478.53;;;17.40;63.01
6393;BME280;3229;42.674;23.282;2023-05-21T01:01:51;94476.31;;;17.37;63.12
6393;BME280;3229;42.674;23.282;2023-05-21T01:04:21;94477.31;;;17.36;63.16
6393;BME280;3229;42.674;23.282;2023-05-21T01:06:48;94470.34;;;17.37;63.24
6393;BME280;3229;42.674;23.282;2023-05-21T01:09:15;94475.69;;;17.35;63.24
6393;BME280;3229;42.674;23.282;2023-05-21T01:11:45;94449.09;;;17.20;63.03
6393;BME280;3229;42.674;23.282;2023-05-21T01:14:14;94462.94;;;17.34;63.36
6393;BME280;3229;42.674;23.282;2023-05-21T01:16:44;94434.31;;;17.14;63.23
6393;BME280;3229;42.674;23.282;2023-05-21T01:19:14;94469.09;;;17.33;63.41
6393;BME280;3229;42.674;23.282;2023-05-21T01:21:44;94455.56;;;17.30;63.50
6393;BME280;3229;42.674;23.282;2023-05-21T01:24:13;94455.56;;;17.30;63.37
6393;BME280;3229;42.674;23.282;2023-05-21T01:26:40;94464.28;;;17.29;63.34
6393;BME280;3229;42.674;23.282;2023-05-21T01:29:09;94450.50;;;17.22;63.54
6393;BME280;3229;42.674;23.282;2023-05-21T01:31:47;94459.13;;;17.29;63.75
6393;BME280;3229;42.674;23.282;2023-05-21T01:34:23;94453.53;;;17.26;63.60
6393;BME280;3229;42.674;23.282;2023-05-21T01:36:56;94454.94;;;17.28;63.80
6393;BME280;3229;42.674;23.282;2023-05-21T01:39:29;94454.31;;;17.26;63.74
6393;BME280;3229;42.674;23.282;2023-05-21T01:41:59;94454.50;;;17.25;63.78
6393;BME280;3229;42.674;23.282;2023-05-21T01:44:29;94453.09;;;17.22;64.07
6393;BME280;3229;42.674;23.282;2023-05-21T01:46:58;94448.91;;;17.21;63.88
6393;BME280;3229;42.674;23.282;2023-05-21T01:49:25;94453.09;;;17.22;63.99
6393;BME280;3229;42.674;23.282;2023-05-21T01:51:53;94453.09;;;17.22;63.85
6393;BME280;3229;42.674;23.282;2023-05-21T01:54:20;94458.88;;;17.24;64.00
6393;BME280;3229;42.674;23.282;2023-05-21T01:56:49;94458.09;;;17.24;64.12
6393;BME280;3229;42.674;23.282;2023-05-21T01:59:16;94456.31;;;17.24;64.02
6393;BME280;3229;42.674;23.282;2023-05-21T02:01:44;94453.72;;;17.24;64.26
6393;BME280;3229;42.674;23.282;2023-05-21T02:04:11;94451.31;;;17.23;63.95
6393;BME280;3229;42.674;23.282;2023-05-21T02:06:38;94445.34;;;17.22;64.08
6393;BME280;3229;42.674;23.282;2023-05-21T02:09:06;94444.72;;;17.20;64.20
6393;BME280;3229;42.674;23.282;2023-05-21T02:11:33;94440.91;;;17.16;64.16
6393;BME280;3229;42.674;23.282;2023-05-21T02:14:01;94438.94;;;17.18;64.11
6393;BME280;3229;42.674;23.282;2023-05-21T02:16:28;94437.34;;;17.17;64.31
6393;BME280;3229;42.674;23.282;2023-05-21T02:18:55;94436.75;;;17.15;64.36
6393;BME280;3229;42.674;23.282;2023-05-21T02:21:22;94430.94;;;17.13;64.11
6393;BME280;3229;42.674;23.282;2023-05-21T02:23:49;94437.66;;;17.08;64.35
6393;BME280;3229;42.674;23.282;2023-05-21T02:26:16;94431.50;;;17.09;64.53
6393;BME280;3229;42.674;23.282;2023-05-21T02:28:43;94436.22;;;17.05;64.70
6393;BME280;3229;42.674;23.282;2023-05-21T02:31:11;94430.44;;;17.03;64.73
6393;BME280;3229;42.674;23.282;2023-05-21T02:33:38;94436.16;;;16.98;64.75
6393;BME280;3229;42.674;23.282;2023-05-21T02:36:06;94437.94;;;16.98;64.83
6393;BME280;3229;42.674;23.282;2023-05-21T02:38:37;94367.44;;;16.46;64.89
6393;BME280;3229;42.674;23.282;2023-05-21T02:41:05;94437.88;;;16.91;64.96
6393;BME280;3229;42.674;23.282;2023-05-21T02:43:32;94431.13;;;16.90;64.86
6393;BME280;3229;42.674;23.282;2023-05-21T02:45:59;94423.56;;;16.89;65.01
6393;BME280;3229;42.674;23.282;2023-05-21T02:48:27;94428.09;;;16.87;65.07
6393;BME280;3229;42.674;23.282;2023-05-21T02:50:54;94426.84;;;16.83;65.15
6393;BME280;3229;42.674;23.282;2023-05-21T02:53:20;94425.25;;;16.82;65.09
6393;BME280;3229;42.674;23.282;2023-05-21T02:55:47;94422.88;;;16.80;65.30
6393;BME280;3229;42.674;23.282;2023-05-21T02:58:14;94420.19;;;16.73;65.42
6393;BME280;3229;42.674;23.282;2023-05-21T03:00:41;94422.22;;;16.78;65.33
6393;BME280;3229;42.674;23.282;2023-05-21T03:03:08;94420.63;;;16.77;65.40
6393;BME280;3229;42.674;23.282;2023-05-21T03:05:37;94421.63;;;16.76;65.47
6393;BME280;3229;42.674;23.282;2023-05-21T03:08:04;94420.84;;;16.75;65.50
6393;BME280;3229;42.674;23.282;2023-05-21T03:10:30;94430.34;;;16.75;65.55
6393;BME280;3229;42.674;23.282;2023-05-21T03:12:57;94438.09;;;16.75;65.67
6393;BME280;3229;42.674;23.282;2023-05-21T03:15:25;94396.88;;;16.52;65.54
6393;BME280;3229;42.674;23.282;2023-05-21T03:17:57;94444.06;;;16.75;65.46
6393;BME280;3229;42.674;23.282;2023-05-21T03:20:24;94430.53;;;16.73;65.57
6393;BME280;3229;42.674;23.282;2023-05-21T03:22:53;94424.09;;;16.69;65.50
6393;BME280;3229;42.674;23.282;2023-05-21T03:25:23;94415.31;;;16.64;65.60
6393;BME280;3229;42.674;23.282;2023-05-21T03:27:50;94427.22;;;16.65;65.66
6393;BME280;3229;42.674;23.282;2023-05-21T03:30:17;94444.06;;;16.75;65.47
6393;BME280;3229;42.674;23.282;2023-05-21T03:32:45;94445.66;;;16.76;65.65
6393;BME280;3229;42.674;23.282;2023-05-21T03:35:14;94447.25;;;16.77;65.58
6393;BME280;3229;42.674;23.282;2023-05-21T03:37:40;94446.03;;;16.73;65.53
6393;BME280;3229;42.674;23.282;2023-05-21T03:40:10;94443.53;;;16.80;65.73
6393;BME280;3229;42.674;23.282;2023-05-21T03:42:37;94445.91;;;16.82;65.39
6393;BME280;3229;42.674;23.282;2023-05-21T03:45:04;94435.22;;;16.85;65.50
6393;BME280;3229;42.674;23.282;2023-05-21T03:47:31;94434.25;;;16.86;65.49
6393;BME280;3229;42.674;23.282;2023-05-21T03:50:00;94436.47;;;16.89;65.47
6393;BME280;3229;42.674;23.282;2023-05-21T03:52:27;94443.03;;;16.91;65.28
6393;BME280;3229;42.674;23.282;2023-05-21T03:54:53;94443.66;;;16.93;65.19
6393;BME280;3229;42.674;23.282;2023-05-21T03:57:22;94446.69;;;16.97;65.21
6393;BME280;3229;42.674;23.282;2023-05-21T03:59:48;94442.13;;;16.99;65.28
6393;BME280;3229;42.674;23.282;2023-05-21T04:02:15;94439.19;;;17.02;65.12
6393;BME280;3229;42.674;23.282;2023-05-21T04:04:42;94440.59;;;17.04;65.34
6393;BME280;3229;42.674;23.282;2023-05-21T04:07:09;94430.88;;;17.07;65.01
6393;BME280;3229;42.674;23.282;2023-05-21T04:09:39;94437.28;;;17.11;65.12
6393;BME280;3229;42.674;23.282;2023-05-21T04:12:06;94440.13;;;17.16;65.14
6393;BME280;3229;42.674;23.282;2023-05-21T04:14:35;94436.19;;;17.20;64.99
6393;BME280;3229;42.674;23.282;2023-05-21T04:17:02;94441.41;;;17.26;64.98
6393;BME280;3229;42.674;23.282;2023-05-21T04:19:30;94434.50;;;17.34;64.74
6393;BME280;3229;42.674;23.282;2023-05-21T04:21:56;94439.75;;;17.40;64.76
6393;BME280;3229;42.674;23.282;2023-05-21T04:24:23;94440.97;;;17.44;64.76
6393;BME280;3229;42.674;23.282;2023-05-21T04:26:50;94440.03;;;17.52;64.41
6393;BME280;3229;42.674;23.282;2023-05-21T04:29:17;94439.09;;;17.60;64.39
6393;BME280;3229;42.674;23.282;2023-05-21T04:31:47;94439.53;;;17.63;64.35
6393;BME280;3229;42.674;23.282;2023-05-21T04:34:14;94441.19;;;17.71;64.36
6393;BME280;3229;42.674;23.282;2023-05-21T04:36:42;94439.41;;;17.71;64.40
6393;BME280;3229;42.674;23.282;2023-05-21T04:39:09;94435.53;;;17.82;64.15
6393;BME280;3229;42.674;23.282;2023-05-21T04:41:36;94442.53;;;17.88;64.22
6393;BME280;3229;42.674;23.282;2023-05-21T04:44:05;94432.19;;;17.88;64.03
6393;BME280;3229;42.674;23.282;2023-05-21T04:46:32;94414.22;;;17.80;64.00
6393;BME280;3229;42.674;23.282;2023-05-21T04:49:00;94444.44;;;18.08;63.86
6393;BME280;3229;42.674;23.282;2023-05-21T04:51:28;94433.53;;;18.12;63.90
6393;BME280;3229;42.674;23.282;2023-05-21T04:53:55;94442.72;;;18.21;63.65
6393;BME280;3229;42.674;23.282;2023-05-21T04:56:22;94439.41;;;18.34;63.41
6393;BME280;3229;42.674;23.282;2023-05-21T04:58:51;94432.13;;;18.44;63.15
6393;BME280;3229;42.674;23.282;2023-05-21T05:01:18;94431.53;;;18.55;63.12
6393;BME280;3229;42.674;23.282;2023-05-21T05:03:47;94397.66;;;18.44;62.94
6393;BME280;3229;42.674;23.282;2023-05-21T05:06:15;94429.91;;;18.83;62.83
6393;BME280;3229;42.674;23.282;2023-05-21T05:08:42;94430.16;;;19.01;62.48
6393;BME280;3229;42.674;23.282;2023-05-21T05:11:09;94423.81;;;19.23;62.07
6393;BME280;3229;42.674;23.282;2023-05-21T05:13:36;94433.59;;;19.41;61.87
6393;BME280;3229;42.674;23.282;2023-05-21T05:16:03;94437.59;;;19.57;61.54
6393;BME280;3229;42.674;23.282;2023-05-21T05:18:30;94438.81;;;19.74;61.37
6393;BME280;3229;42.674;23.282;2023-05-21T05:20:58;94440.81;;;19.92;60.98
6393;BME280;3229;42.674;23.282;2023-05-21T05:23:26;94438.19;;;20.12;60.66
6393;BME280;3229;42.674;23.282;2023-05-21T05:25:53;94433.50;;;20.41;60.11
6393;BME280;3229;42.674;23.282;2023-05-21T05:28:20;94439.66;;;20.66;59.74
6393;BME280;3229;42.674;23.282;2023-05-21T05:30:46;94439.38;;;20.88;59.38
6393;BME280;3229;42.674;23.282;2023-05-21T05:33:13;94431.66;;;21.06;59.15
6393;BME280;3229;42.674;23.282;2023-05-21T05:35:40;94431.19;;;21.22;58.99
6393;BME280;3229;42.674;23.282;2023-05-21T05:38:07;94435.66;;;21.47;58.68
6393;BME280;3229;42.674;23.282;2023-05-21T05:40:35;94440.88;;;21.72;58.33
6393;BME280;3229;42.674;23.282;2023-05-21T05:43:02;94441.00;;;22.02;57.98
6393;BME280;3229;42.674;23.282;2023-05-21T05:45:29;94446.72;;;22.36;57.81
6393;BME280;3229;42.674;23.282;2023-05-21T05:47:55;94434.47;;;22.73;57.61
6393;BME280;3229;42.674;23.282;2023-05-21T05:50:22;94435.25;;;23.10;57.31
6393;BME280;3229;42.674;23.282;2023-05-21T05:52:49;94428.09;;;23.47;56.93
6393;BME280;3229;42.674;23.282;2023-05-21T05:55:16;94431.47;;;23.90;56.57
6393;BME280;3229;42.674;23.282;2023-05-21T05:57:44;94433.63;;;24.28;55.70
6393;BME280;3229;42.674;23.282;2023-05-21T06:00:12;94430.63;;;24.60;55.19
6393;BME280;3229;42.674;23.282;2023-05-21T06:02:39;94429.75;;;24.94;54.54
6393;BME280;3229;42.674;23.282;2023-05-21T06:05:06;94430.56;;;25.23;54.34
6393;BME280;3229;42.674;23.282;2023-05-21T06:07:36;94428.00;;;25.57;53.75
6393;BME280;3229;42.674;23.282;2023-05-21T06:10:04;94439.78;;;26.05;53.81
6393;BME280;3229;42.674;23.282;2023-05-21T06:12:31;94439.34;;;26.69;53.51
6393;BME280;3229;42.674;23.282;2023-05-21T06:14:59;94422.81;;;27.44;52.99
6393;BME280;3229;42.674;23.282;2023-05-21T06:17:26;94423.72;;;28.24;52.96
6393;BME280;3229;42.674;23.282;2023-05-21T06:19:53;94426.22;;;29.09;51.77
6393;BME280;3229;42.674;23.282;2023-05-21T06:22:20;94426.84;;;29.98;51.10
6393;BME280;3229;42.674;23.282;2023-05-21T06:24:46;94427.47;;;30.85;49.81
6393;BME280;3229;42.674;23.282;2023-05-21T06:27:13;94423.53;;;31.71;48.84
6393;BME280;3229;42.674;23.282;2023-05-21T06:29:40;94420.81;;;32.64;47.85
6393;BME280;3229;42.674;23.282;2023-05-21T06:32:08;94422.50;;;33.59;46.97
6393;BME280;3229;42.674;23.282;2023-05-21T06:34:35;94417.63;;;34.45;45.67
6393;BME280;3229;42.674;23.282;2023-05-21T06:37:02;94427.41;;;35.05;44.33
6393;BME280;3229;42.674;23.282;2023-05-21T06:39:29;94423.78;;;35.37;43.57
6393;BME280;3229;42.674;23.282;2023-05-21T06:41:55;94415.97;;;35.55;43.22
6393;BME280;3229;42.674;23.282;2023-05-21T06:44:22;94413.38;;;35.63;42.62
6393;BME280;3229;42.674;23.282;2023-05-21T06:46:49;94414.47;;;35.62;42.36
6393;BME280;3229;42.674;23.282;2023-05-21T06:49:19;94415.34;;;35.58;42.01
6393;BME280;3229;42.674;23.282;2023-05-21T06:51:46;94409.50;;;35.47;41.75
6393;BME280;3229;42.674;23.282;2023-05-21T06:54:13;94416.00;;;35.41;41.65
6393;BME280;3229;42.674;23.282;2023-05-21T06:56:40;94414.72;;;35.38;41.41
6393;BME280;3229;42.674;23.282;2023-05-21T06:59:07;94420.44;;;35.32;41.17
6393;BME280;3229;42.674;23.282;2023-05-21T07:01:33;94417.63;;;35.28;41.00
6393;BME280;3229;42.674;23.282;2023-05-21T07:04:00;94410.88;;;35.31;40.39
6393;BME280;3229;42.674;23.282;2023-05-21T07:06:29;94417.38;;;35.38;40.57
6393;BME280;3229;42.674;23.282;2023-05-21T07:08:56;94408.59;;;35.52;40.68
6393;BME280;3229;42.674;23.282;2023-05-21T07:11:23;94409.06;;;35.76;40.23
6393;BME280;3229;42.674;23.282;2023-05-21T07:13:53;94407.78;;;36.18;40.22
6393;BME280;3229;42.674;23.282;2023-05-21T07:16:21;94404.69;;;36.65;39.74
6393;BME280;3229;42.674;23.282;2023-05-21T07:18:48;94407.78;;;37.15;39.35
6393;BME280;3229;42.674;23.282;2023-05-21T07:21:15;94409.72;;;37.67;39.36
6393;BME280;3229;42.674;23.282;2023-05-21T07:27:35;94415.22;;;38.73;37.83
6393;BME280;3229;42.674;23.282;2023-05-21T07:30:02;94417.88;;;38.91;37.64
6393;BME280;3229;42.674;23.282;2023-05-21T07:32:29;94415.53;;;39.10;37.34
6393;BME280;3229;42.674;23.282;2023-05-21T07:34:58;94407.78;;;39.38;37.49
6393;BME280;3229;42.674;23.282;2023-05-21T07:37:26;94421.72;;;39.73;36.75
6393;BME280;3229;42.674;23.282;2023-05-21T07:39:53;94394.75;;;39.91;36.70
6393;BME280;3229;42.674;23.282;2023-05-21T07:42:21;94410.94;;;40.27;35.78
6393;BME280;3229;42.674;23.282;2023-05-21T07:44:49;94404.03;;;40.51;35.52
6393;BME280;3229;42.674;23.282;2023-05-21T07:47:17;94406.66;;;40.59;35.71
6393;BME280;3229;42.674;23.282;2023-05-21T07:49:44;94414.34;;;40.85;35.36
6393;BME280;3229;42.674;23.282;2023-05-21T07:52:11;94413.25;;;40.99;34.92
6393;BME280;3229;42.674;23.282;2023-05-21T07:54:38;94404.72;;;41.09;34.77
6393;BME280;3229;42.674;23.282;2023-05-21T07:57:05;94400.72;;;41.03;34.41
6393;BME280;3229;42.674;23.282;2023-05-21T07:59:33;94406.06;;;40.91;33.88
6393;BME280;3229;42.674;23.282;2023-05-21T08:02:01;94405.53;;;40.73;34.33
6393;BME280;3229;42.674;23.282;2023-05-21T08:04:28;94410.00;;;40.56;34.20
6393;BME280;3229;42.674;23.282;2023-05-21T08:06:55;94413.50;;;40.36;34.70
6393;BME280;3229;42.674;23.282;2023-05-21T08:09:22;94407.56;;;40.18;34.45
6393;BME280;3229;42.674;23.282;2023-05-21T08:11:49;94409.53;;;40.09;33.72
6393;BME280;3229;42.674;23.282;2023-05-21T08:14:17;94415.56;;;40.06;33.49
6393;BME280;3229;42.674;23.282;2023-05-21T08:16:44;94405.34;;;39.87;33.78
6393;BME280;3229;42.674;23.282;2023-05-21T08:19:15;94404.78;;;39.60;33.93
6393;BME280;3229;42.674;23.282;2023-05-21T08:21:42;94416.50;;;39.35;33.75
6393;BME280;3229;42.674;23.282;2023-05-21T08:24:09;94406.91;;;39.04;34.19
6393;BME280;3229;42.674;23.282;2023-05-21T08:26:36;94419.16;;;38.76;34.15
6393;BME280;3229;42.674;23.282;2023-05-21T08:29:03;94406.44;;;38.43;34.17
6393;BME280;3229;42.674;23.282;2023-05-21T08:31:29;94409.81;;;38.14;33.85
6393;BME280;3229;42.674;23.282;2023-05-21T08:33:56;94411.09;;;37.82;34.08
6393;BME280;3229;42.674;23.282;2023-05-21T08:36:24;94418.06;;;37.48;34.36
6393;BME280;3229;42.674;23.282;2023-05-21T08:38:51;94394.91;;;37.00;34.19
6393;BME280;3229;42.674;23.282;2023-05-21T08:41:19;94408.78;;;36.62;34.17
6393;BME280;3229;42.674;23.282;2023-05-21T08:43:54;94408.59;;;36.28;34.24
6393;BME280;3229;42.674;23.282;2023-05-21T08:46:22;94397.56;;;35.89;34.61
6393;BME280;3229;42.674;23.282;2023-05-21T08:48:50;94322.81;;;35.10;34.26
6393;BME280;3229;42.674;23.282;2023-05-21T08:51:19;94422.38;;;35.40;34.14
6393;BME280;3229;42.674;23.282;2023-05-21T08:53:49;94402.47;;;35.15;34.18
6393;BME280;3229;42.674;23.282;2023-05-21T08:56:16;94402.56;;;34.96;34.11
6393;BME280;3229;42.674;23.282;2023-05-21T08:58:44;94407.41;;;34.80;34.01
6393;BME280;3229;42.674;23.282;2023-05-21T09:01:11;94397.50;;;34.72;34.26
6393;BME280;3229;42.674;23.282;2023-05-21T09:03:39;94396.53;;;34.68;33.92
6393;BME280;3229;42.674;23.282;2023-05-21T09:06:09;94397.50;;;34.58;34.04
6393;BME280;3229;42.674;23.282;2023-05-21T09:08:42;94400.44;;;34.43;34.19
6393;BME280;3229;42.674;23.282;2023-05-21T09:11:10;94412.09;;;34.28;34.26
6393;BME280;3229;42.674;23.282;2023-05-21T09:13:39;94410.13;;;34.06;34.08
6393;BME280;3229;42.674;23.282;2023-05-21T09:16:07;94394.69;;;33.76;33.93
6393;BME280;3229;42.674;23.282;2023-05-21T09:18:35;94410.00;;;33.46;34.32
6393;BME280;3229;42.674;23.282;2023-05-21T09:21:22;94403.69;;;33.23;34.18
6393;BME280;3229;42.674;23.282;2023-05-21T09:23:53;94374.94;;;32.92;34.21
6393;BME280;3229;42.674;23.282;2023-05-21T09:26:22;94402.34;;;32.83;34.43
6393;BME280;3229;42.674;23.282;2023-05-21T09:28:49;94403.31;;;32.68;34.37
6393;BME280;3229;42.674;23.282;2023-05-21T09:31:16;94400.72;;;32.63;34.34
6393;BME280;3229;42.674;23.282;2023-05-21T09:33:45;94397.00;;;32.64;34.34
6393;BME280;3229;42.674;23.282;2023-05-21T09:36:12;94403.09;;;32.64;34.46
6393;BME280;3229;42.674;23.282;2023-05-21T09:38:39;94392.22;;;32.66;34.17
6393;BME280;3229;42.674;23.282;2023-05-21T09:41:06;94397.81;;;32.64;34.11
6393;BME280;3229;42.674;23.282;2023-05-21T09:43:35;94405.78;;;32.59;34.18
6393;BME280;3229;42.674;23.282;2023-05-21T09:46:02;94391.91;;;32.49;34.13
6393;BME280;3229;42.674;23.282;2023-05-21T09:48:33;94392.25;;;32.37;34.07
6393;BME280;3229;42.674;23.282;2023-05-21T09:51:12;94381.19;;;32.30;34.08
6393;BME280;3229;42.674;23.282;2023-05-21T09:53:43;94388.94;;;32.26;34.00
6393;BME280;3229;42.674;23.282;2023-05-21T09:56:09;94388.47;;;32.19;34.08
6393;BME280;3229;42.674;23.282;2023-05-21T09:58:41;94393.53;;;32.15;33.98
6393;BME280;3229;42.674;23.282;2023-05-21T10:01:09;94391.19;;;32.14;33.67
6393;BME280;3229;42.674;23.282;2023-05-21T10:03:38;94384.34;;;32.08;33.74
6393;BME280;3229;42.674;23.282;2023-05-21T10:06:06;94387.63;;;32.00;34.18
6393;BME280;3229;42.674;23.282;2023-05-21T10:08:35;94380.06;;;31.88;33.92
6393;BME280;3229;42.674;23.282;2023-05-21T10:11:04;94375.34;;;31.80;33.75
6393;BME280;3229;42.674;23.282;2023-05-21T10:13:33;94381.50;;;31.70;34.08
6393;BME280;3229;42.674;23.282;2023-05-21T10:16:05;94368.31;;;31.65;33.92
6393;BME280;3229;42.674;23.282;2023-05-21T10:18:32;94381.03;;;31.63;33.68
6393;BME280;3229;42.674;23.282;2023-05-21T10:21:03;94195.03;;;30.51;33.64
6393;BME280;3229;42.674;23.282;2023-05-21T10:23:33;94367.25;;;31.66;33.49
6393;BME280;3229;42.674;23.282;2023-05-21T10:26:03;94370.34;;;31.73;33.52
6393;BME280;3229;42.674;23.282;2023-05-21T10:28:32;94371.97;;;31.69;33.36
6393;BME280;3229;42.674;23.282;2023-05-21T10:31:00;94307.28;;;31.27;33.32
6393;BME280;3229;42.674;23.282;2023-05-21T10:33:29;94360.47;;;31.55;33.47
6393;BME280;3229;42.674;23.282;2023-05-21T10:35:57;94361.97;;;31.66;33.87
6393;BME280;3229;42.674;23.282;2023-05-21T10:38:24;94354.00;;;31.71;33.35
6393;BME280;3229;42.674;23.282;2023-05-21T10:40:52;94365.53;;;31.85;33.44
6393;BME280;3229;42.674;23.282;2023-05-21T10:43:45;94368.44;;;31.84;33.40
6393;BME280;3229;42.674;23.282;2023-05-21T10:46:54;94373.78;;;31.73;33.46
6393;BME280;3229;42.674;23.282;2023-05-21T10:49:37;94367.66;;;31.49;33.90
6393;BME280;3229;42.674;23.282;2023-05-21T10:52:17;94363.56;;;31.28;34.05
6393;BME280;3229;42.674;23.282;2023-05-21T10:55:04;94368.72;;;31.04;33.98
6393;BME280;3229;42.674;23.282;2023-05-21T10:57:52;94361.44;;;30.85;34.09
6393;BME280;3229;42.674;23.282;2023-05-21T11:00:25;94362.53;;;30.74;33.99
6393;BME280;3229;42.674;23.282;2023-05-21T11:02:53;94371.28;;;30.64;34.44
6393;BME280;3229;42.674;23.282;2023-05-21T11:05:37;94374.53;;;30.46;33.97
6393;BME280;3229;42.674;23.282;2023-05-21T11:08:04;94364.59;;;30.22;34.84
6393;BME280;3229;42.674;23.282;2023-05-21T11:10:36;94366.19;;;29.98;34.58
6393;BME280;3229;42.674;23.282;2023-05-21T11:13:06;94362.03;;;29.71;35.06
6393;BME280;3229;42.674;23.282;2023-05-21T11:16:02;94361.22;;;29.45;35.16
6393;BME280;3229;42.674;23.282;2023-05-21T11:18:58;94359.34;;;29.15;35.41
6393;BME280;3229;42.674;23.282;2023-05-21T11:21:28;94359.81;;;28.97;35.71
6393;BME280;3229;42.674;23.282;2023-05-21T11:23:59;94362.69;;;28.85;35.63
6393;BME280;3229;42.674;23.282;2023-05-21T11:26:28;94352.16;;;28.80;35.56
6393;BME280;3229;42.674;23.282;2023-05-21T11:29:06;94344.50;;;28.79;36.02
6393;BME280;3229;42.674;23.282;2023-05-21T11:31:35;94343.44;;;28.80;35.72
6393;BME280;3229;42.674;23.282;2023-05-21T11:34:11;94341.84;;;28.73;35.53
6393;BME280;3229;42.674;23.282;2023-05-21T11:36:40;94347.06;;;28.58;36.04
6393;BME280;3229;42.674;23.282;2023-05-21T11:39:08;94336.78;;;28.41;36.12
6393;BME280;3229;42.674;23.282;2023-05-21T11:41:49;94334.53;;;28.18;36.21
6393;BME280;3229;42.674;23.282;2023-05-21T11:44:17;94318.59;;;27.87;36.43
6393;BME280;3229;42.674;23.282;2023-05-21T11:46:45;94329.56;;;27.79;36.95
6393;BME280;3229;42.674;23.282;2023-05-21T11:49:12;94326.03;;;27.63;37.00
6393;BME280;3229;42.674;23.282;2023-05-21T11:51:41;94307.72;;;27.36;37.19
6393;BME280;3229;42.674;23.282;2023-05-21T11:54:09;94324.56;;;27.40;37.15
6393;BME280;3229;42.674;23.282;2023-05-21T11:56:37;94335.00;;;27.30;36.98
6393;BME280;3229;42.674;23.282;2023-05-21T11:59:13;94330.16;;;27.17;37.32
6393;BME280;3229;42.674;23.282;2023-05-21T12:01:42;94326.81;;;26.99;37.28
6393;BME280;3229;42.674;23.282;2023-05-21T12:04:09;94328.03;;;26.87;37.93
6393;BME280;3229;42.674;23.282;2023-05-21T12:06:36;94324.94;;;26.68;38.22
6393;BME280;3229;42.674;23.282;2023-05-21T12:09:08;94321.91;;;26.54;38.19
6393;BME280;3229;42.674;23.282;2023-05-21T12:11:37;94316.47;;;26.39;38.17
6393;BME280;3229;42.674;23.282;2023-05-21T12:14:09;94323.09;;;26.24;38.65
6393;BME280;3229;42.674;23.282;2023-05-21T12:16:36;94300.50;;;25.96;38.50
6393;BME280;3229;42.674;23.282;2023-05-21T12:19:04;94325.97;;;26.01;38.90
6393;BME280;3229;42.674;23.282;2023-05-21T12:21:33;94325.84;;;25.91;38.74
6393;BME280;3229;42.674;23.282;2023-05-21T12:24:01;94320.44;;;25.81;38.79
6393;BME280;3229;42.674;23.282;2023-05-21T12:26:29;94319.56;;;25.75;39.22
6393;BME280;3229;42.674;23.282;2023-05-21T12:29:00;94318.94;;;25.68;39.04
6393;BME280;3229;42.674;23.282;2023-05-21T12:31:29;94316.72;;;25.60;39.04
6393;BME280;3229;42.674;23.282;2023-05-21T12:33:57;94324.28;;;25.56;39.11
6393;BME280;3229;42.674;23.282;2023-05-21T12:36:28;94309.75;;;25.48;39.51
6393;BME280;3229;42.674;23.282;2023-05-21T12:38:56;94314.22;;;25.48;39.38
6393;BME280;3229;42.674;23.282;2023-05-21T12:41:23;94299.91;;;25.39;39.49
6393;BME280;3229;42.674;23.282;2023-05-21T12:43:52;94309.06;;;25.36;39.70
6393;BME280;3229;42.674;23.282;2023-05-21T12:46:19;94301.59;;;25.28;39.86
6393;BME280;3229;42.674;23.282;2023-05-21T12:48:48;94303.56;;;25.21;40.00
6393;BME280;3229;42.674;23.282;2023-05-21T12:51:15;94297.72;;;25.14;40.11
6393;BME280;3229;42.674;23.282;2023-05-21T12:53:42;94303.84;;;25.08;39.95
6393;BME280;3229;42.674;23.282;2023-05-21T12:56:10;94298.00;;;25.00;40.20
6393;BME280;3229;42.674;23.282;2023-05-21T12:58:37;94298.91;;;24.94;40.16
6393;BME280;3229;42.674;23.282;2023-05-21T13:01:06;94300.09;;;24.87;40.27
6393;BME280;3229;42.674;23.282;2023-05-21T13:03:33;94300.25;;;24.80;40.22
6393;BME280;3229;42.674;23.282;2023-05-21T13:06:00;94297.00;;;24.73;40.38
6393;BME280;3229;42.674;23.282;2023-05-21T13:08:28;94283.88;;;24.56;40.51
6393;BME280;3229;42.674;23.282;2023-05-21T13:10:54;94299.69;;;24.61;40.75
6393;BME280;3229;42.674;23.282;2023-05-21T13:13:21;94296.94;;;24.56;40.85
6393;BME280;3229;42.674;23.282;2023-05-21T13:15:48;94297.44;;;24.53;40.88
6393;BME280;3229;42.674;23.282;2023-05-21T13:18:16;94293.13;;;24.47;40.96
6393;BME280;3229;42.674;23.282;2023-05-21T13:20:45;94291.53;;;24.46;40.87